Prairie Hill, Missouri
Current Conditions -  °F | °C
As of 3:55 AM on Thursday 25 Dec 2014 (Local Time) from KVER Reporting Station
Clear Clear  
Wind Chill: 25°   Ceiling: Unl
Heat Index: 31°   Visibility: 10mi
Dew Point: 30°   Wind: 6mph
Humidity: 97%   Direction: 180°S
Pressure: 29.88"   Gusts: NA
Location:  39.4605°N, 92.8061°W
Report Text: KVER 250955Z AUTO 18005KT 10SM CLR M01/M01 A2988 RMK AO2 T10071011
Loading
Personal Weather Stations






























Interactive Weather Map New forecast layout! Learn more

10-Day Weather Forecast

Advertisements
Track Severe Weather on mobile